Time;durP1;ratioP1;P1;durP2;ratioP2;P2;SDS_P1;SDS_P2;PMS_P1;PMS_P2;Temp;Humidity;BMP_temperature;BMP_pressure;BME280_temperature;BME280_humidity;BME280_pressure;Samples;Min_cycle;Max_cycle;Signal;HPM_P1;HPM_P2
2021/01/12 00:00:44;;;;;;;29.83;15.35;;;-3.80;99.90;;;;;;4995091;28;20198;-68
2021/01/12 00:03:12;;;;;;;31.73;15.50;;;-3.80;99.90;;;;;;4994955;28;20634;-68
2021/01/12 00:05:42;;;;;;;26.00;13.85;;;-3.70;99.90;;;;;;4994659;28;20240;-69
2021/01/12 00:08:10;;;;;;;33.45;15.88;;;-3.60;99.90;;;;;;4994749;28;20202;-68
2021/01/12 00:10:37;;;;;;;34.83;17.83;;;-3.50;99.90;;;;;;4995337;28;20539;-69
2021/01/12 00:13:05;;;;;;;35.67;17.25;;;-3.50;99.90;;;;;;4996115;28;20186;-69
2021/01/12 00:15:33;;;;;;;26.35;16.80;;;-3.40;99.90;;;;;;4996171;28;20248;-67
2021/01/12 00:18:01;;;;;;;33.92;15.77;;;-3.30;99.90;;;;;;4995221;28;20241;-69
2021/01/12 00:20:28;;;;;;;31.13;15.77;;;-3.30;99.90;;;;;;4994347;28;20213;-69
2021/01/12 00:22:55;;;;;;;29.42;16.10;;;-3.30;99.90;;;;;;4994339;28;20194;-69
2021/01/12 00:25:24;;;;;;;29.60;15.47;;;-3.20;99.90;;;;;;4995913;28;20233;-68
2021/01/12 00:27:55;;;;;;;28.02;14.45;;;-3.20;99.90;;;;;;4994584;28;20468;-69
2021/01/12 00:30:24;;;;;;;24.73;15.50;;;-3.10;99.90;;;;;;4994006;28;20229;-68
2021/01/12 00:32:51;;;;;;;25.13;13.50;;;-3.10;99.90;;;;;;4994211;28;20471;-70
2021/01/12 00:35:19;;;;;;;29.40;17.80;;;-3.00;99.90;;;;;;4994970;28;20437;-69
2021/01/12 00:37:46;;;;;;;24.57;13.73;;;-2.90;99.90;;;;;;4995810;28;20503;-69
2021/01/12 00:40:14;;;;;;;27.50;15.67;;;-2.80;99.90;;;;;;4994241;28;20433;-69
2021/01/12 00:42:43;;;;;;;23.03;13.03;;;-2.90;99.90;;;;;;4995232;28;20444;-69
2021/01/12 00:45:12;;;;;;;30.50;15.00;;;-3.00;99.90;;;;;;4995289;28;20437;-68
2021/01/12 00:47:43;;;;;;;31.30;16.70;;;-3.00;99.90;;;;;;4995145;28;20523;-68
2021/01/12 00:50:11;;;;;;;30.70;16.50;;;-2.90;99.90;;;;;;4994185;28;21008;-68
2021/01/12 00:52:39;;;;;;;35.80;15.87;;;-2.80;99.90;;;;;;4994327;28;20449;-68
2021/01/12 00:55:07;;;;;;;21.57;13.90;;;-2.70;99.90;;;;;;4993966;28;20436;-70
2021/01/12 00:57:35;;;;;;;22.53;13.93;;;-2.50;99.90;;;;;;5026821;22;20496;-70
2021/01/12 01:00:04;;;;;;;18.10;12.07;;;-2.60;99.90;;;;;;5019897;28;20436;-69
2021/01/12 01:02:33;;;;;;;25.20;14.03;;;-2.50;99.90;;;;;;5010496;28;20473;-66
2021/01/12 01:05:00;;;;;;;26.73;15.03;;;-2.60;99.90;;;;;;4994802;28;20564;-67
2021/01/12 01:07:28;;;;;;;22.23;12.40;;;-2.60;99.90;;;;;;5010970;28;20951;-67
2021/01/12 01:09:55;;;;;;;25.23;13.77;;;-2.60;99.90;;;;;;4995361;28;20190;-69
2021/01/12 01:12:22;;;;;;;25.00;13.07;;;-2.60;99.90;;;;;;4999066;28;20500;-67
2021/01/12 01:14:51;;;;;;;29.73;15.73;;;-2.50;99.90;;;;;;5012045;28;20487;-67
2021/01/12 01:17:19;;;;;;;24.73;14.27;;;-2.40;99.90;;;;;;5013694;28;20472;-68
2021/01/12 01:19:47;;;;;;;25.30;14.33;;;-2.40;99.90;;;;;;4998781;28;20484;-68
2021/01/12 01:22:15;;;;;;;24.30;14.10;;;-2.50;99.90;;;;;;5031612;28;20527;-69
2021/01/12 01:24:43;;;;;;;26.83;14.30;;;-2.60;99.90;;;;;;5016217;28;20440;-68
2021/01/12 01:27:10;;;;;;;27.70;14.97;;;-2.50;99.90;;;;;;5014767;28;20443;-67
2021/01/12 01:29:38;;;;;;;28.50;14.97;;;-2.50;99.90;;;;;;5029611;28;20527;-68
2021/01/12 01:32:05;;;;;;;24.83;12.73;;;-2.60;99.90;;;;;;5012180;28;20838;-67
2021/01/12 01:34:34;;;;;;;27.10;13.90;;;-2.60;99.90;;;;;;5012933;28;20452;-69
2021/01/12 01:37:01;;;;;;;35.60;14.97;;;-2.50;99.90;;;;;;5012160;28;20958;-68
2021/01/12 01:39:29;;;;;;;23.80;13.90;;;-2.40;99.90;;;;;;4995912;28;20542;-67
2021/01/12 01:42:01;;;;;;;17.10;10.87;;;-2.40;99.90;;;;;;5011736;28;20460;-68
2021/01/12 01:44:29;;;;;;;23.77;13.90;;;-2.30;99.90;;;;;;5011976;28;20425;-68
2021/01/12 01:46:56;;;;;;;21.40;12.60;;;-2.40;99.90;;;;;;5027298;28;20479;-67
2021/01/12 01:49:25;;;;;;;32.97;15.07;;;-2.40;99.90;;;;;;5011736;28;20464;-67
2021/01/12 01:51:54;;;;;;;24.30;14.23;;;-2.30;99.90;;;;;;5011693;28;20533;-67
2021/01/12 01:54:21;;;;;;;28.30;13.90;;;-2.40;99.90;;;;;;5012884;28;20771;-67
2021/01/12 01:56:49;;;;;;;26.70;13.70;;;-2.30;99.90;;;;;;5011595;28;20879;-68
2021/01/12 01:59:17;;;;;;;21.03;12.87;;;-2.20;99.90;;;;;;5012777;28;20823;-67
2021/01/12 02:01:45;;;;;;;23.13;13.17;;;-2.20;99.90;;;;;;5010888;28;20871;-69
2021/01/12 02:04:22;;;;;;;22.50;13.50;;;-2.20;99.90;;;;;;5013165;28;20440;-68
2021/01/12 02:06:53;;;;;;;25.03;14.33;;;-2.20;99.90;;;;;;5013161;28;20443;-67
2021/01/12 02:09:35;;;;;;;23.90;13.93;;;-2.10;99.90;;;;;;5011968;28;20441;-67
2021/01/12 02:12:07;;;;;;;23.67;12.23;;;-2.00;99.90;;;;;;5013044;28;20923;-67
2021/01/12 02:14:39;;;;;;;23.70;12.37;;;-2.00;99.90;;;;;;5012718;28;20464;-69
2021/01/12 02:17:08;;;;;;;24.00;13.90;;;-2.00;99.90;;;;;;5012008;28;20489;-67
2021/01/12 02:19:37;;;;;;;28.73;13.37;;;-2.10;99.90;;;;;;5014827;28;20921;-67
2021/01/12 02:22:07;;;;;;;23.13;12.83;;;-2.20;99.90;;;;;;5014934;28;20498;-68
2021/01/12 02:25:00;;;;;;;24.87;12.90;;;-2.10;99.90;;;;;;5016411;28;20494;-68
2021/01/12 02:27:28;;;;;;;25.70;13.40;;;-2.10;99.90;;;;;;5016349;28;20459;-68
2021/01/12 02:29:55;;;;;;;22.93;12.53;;;-2.10;99.90;;;;;;5016284;28;20506;-66
2021/01/12 02:32:24;;;;;;;22.73;13.40;;;-1.90;99.90;;;;;;5015726;28;20472;-67
2021/01/12 02:34:54;;;;;;;24.30;12.43;;;-1.80;99.90;;;;;;5016069;28;20428;-67
2021/01/12 02:37:21;;;;;;;20.17;13.23;;;-1.70;99.90;;;;;;5019728;28;20428;-67
2021/01/12 02:39:56;;;;;;;25.20;14.20;;;-1.60;99.90;;;;;;5024356;28;20491;-68
2021/01/12 02:42:26;;;;;;;22.70;13.27;;;-1.70;99.90;;;;;;5016452;28;20432;-67
2021/01/12 02:44:53;;;;;;;23.03;11.53;;;-1.80;99.90;;;;;;4998959;28;20468;-67
2021/01/12 02:47:21;;;;;;;21.57;12.80;;;-1.70;99.90;;;;;;5020909;28;20483;-67
2021/01/12 02:49:48;;;;;;;25.50;12.57;;;-1.70;99.90;;;;;;5025322;28;20432;-68
2021/01/12 02:52:42;;;;;;;24.33;12.50;;;-1.70;99.90;;;;;;5016057;28;20440;-68
2021/01/12 02:58:04;;;;;;;23.40;10.43;;;-1.50;99.90;;;;;;5015256;28;20468;-68
2021/01/12 03:00:32;;;;;;;20.23;12.00;;;-1.40;99.90;;;;;;5014210;28;20452;-68
2021/01/12 03:02:59;;;;;;;17.53;10.07;;;-1.30;99.90;;;;;;5014444;28;20472;-68
2021/01/12 03:05:26;;;;;;;18.63;10.70;;;-1.20;99.90;;;;;;5016007;28;20444;-69
2021/01/12 03:07:54;;;;;;;17.00;10.20;;;-1.20;99.90;;;;;;5014654;28;20425;-68
2021/01/12 03:10:22;;;;;;;18.00;10.70;;;-1.10;99.90;;;;;;5014470;28;20447;-68
2021/01/12 03:12:50;;;;;;;16.67;9.90;;;-1.10;99.90;;;;;;5015133;28;20435;-68
2021/01/12 03:15:18;;;;;;;17.37;9.27;;;-1.10;99.90;;;;;;5016030;28;20432;-68
2021/01/12 03:17:45;;;;;;;15.33;9.80;;;-1.00;99.90;;;;;;5016936;28;20478;-68
2021/01/12 03:20:13;;;;;;;19.70;10.30;;;-1.00;99.90;;;;;;5017734;28;20514;-67
2021/01/12 03:22:41;;;;;;;17.90;10.23;;;-1.00;99.90;;;;;;5018650;28;20425;-68
2021/01/12 03:25:10;;;;;;;16.90;10.87;;;-0.90;99.90;;;;;;5016826;28;20507;-68
2021/01/12 03:27:38;;;;;;;16.47;10.70;;;-1.00;99.90;;;;;;5015090;28;20535;-67
2021/01/12 03:30:07;;;;;;;18.80;9.40;;;-0.90;99.90;;;;;;5015061;28;20444;-67
2021/01/12 03:32:35;;;;;;;20.13;10.57;;;-0.90;99.90;;;;;;5029789;28;20506;-68
2021/01/12 03:35:04;;;;;;;17.77;10.50;;;-0.90;99.90;;;;;;5014893;28;20491;-67
2021/01/12 03:37:32;;;;;;;14.33;9.63;;;-0.80;99.90;;;;;;5013690;28;20958;-68
2021/01/12 03:39:59;;;;;;;22.93;11.43;;;-1.00;99.90;;;;;;5013268;28;20464;-68
2021/01/12 03:42:27;;;;;;;18.73;10.87;;;-0.90;99.90;;;;;;5014398;28;20494;-67
2021/01/12 03:44:55;;;;;;;22.80;11.47;;;-1.00;99.90;;;;;;5014317;28;20512;-67
2021/01/12 03:47:23;;;;;;;21.40;11.53;;;-0.90;99.90;;;;;;5012731;28;21041;-67
2021/01/12 03:50:17;;;;;;;18.17;9.57;;;-1.10;99.90;;;;;;5014251;28;20482;-68
2021/01/12 03:52:45;;;;;;;16.50;10.67;;;-1.10;99.90;;;;;;5041547;22;20532;-75
2021/01/12 03:55:37;;;;;;;21.10;11.07;;;-0.90;99.90;;;;;;5076766;28;20979;-75
2021/01/12 03:58:06;;;;;;;23.00;10.57;;;-0.80;99.90;;;;;;5079146;28;20510;-75
2021/01/12 04:00:34;;;;;;;17.47;10.30;;;-0.90;99.90;;;;;;5072594;28;20484;-76
2021/01/12 04:03:02;;;;;;;14.93;9.10;;;-0.90;99.90;;;;;;5056547;28;20574;-74
2021/01/12 04:05:31;;;;;;;20.20;10.30;;;-0.80;99.90;;;;;;5056812;28;20961;-73
2021/01/12 04:08:23;;;;;;;17.40;10.80;;;-0.90;99.90;;;;;;5058270;28;20426;-79
2021/01/12 04:10:51;;;;;;;14.87;9.27;;;-1.00;99.90;;;;;;5051025;28;20476;-74
2021/01/12 04:13:18;;;;;;;18.97;10.43;;;-1.00;99.90;;;;;;5051670;28;20528;-80
2021/01/12 04:15:45;;;;;;;18.60;10.70;;;-0.90;99.90;;;;;;5059028;28;20540;-75
2021/01/12 04:18:13;;;;;;;16.37;9.90;;;-0.80;99.90;;;;;;5073220;28;20462;-77
2021/01/12 04:20:42;;;;;;;19.53;11.47;;;-0.90;99.90;;;;;;5072909;28;20426;-74
2021/01/12 04:23:09;;;;;;;12.17;9.20;;;-0.90;99.90;;;;;;5074554;28;20425;-74
2021/01/12 04:25:39;;;;;;;20.40;10.50;;;-0.80;99.90;;;;;;5073023;28;20426;-75
2021/01/12 04:28:08;;;;;;;18.40;10.30;;;-0.70;99.90;;;;;;5073976;28;20429;-75
2021/01/12 04:30:35;;;;;;;15.97;9.53;;;-0.60;99.90;;;;;;5073422;28;20567;-73
2021/01/12 04:33:03;;;;;;;22.80;11.67;;;-0.60;99.90;;;;;;5073930;28;20560;-73
2021/01/12 04:35:31;;;;;;;19.90;9.77;;;-0.50;99.90;;;;;;5075708;28;20425;-74
2021/01/12 04:37:59;;;;;;;15.53;9.27;;;-0.50;99.90;;;;;;5076079;28;20733;-74
2021/01/12 04:40:30;;;;;;;16.23;9.20;;;-0.50;99.90;;;;;;5075933;28;20484;-73
2021/01/12 04:42:59;;;;;;;16.53;9.17;;;-0.50;99.90;;;;;;5072705;28;20484;-74
2021/01/12 04:45:27;;;;;;;14.77;9.30;;;-0.50;99.90;;;;;;5073351;28;20908;-78
2021/01/12 04:47:55;;;;;;;22.70;9.10;;;-0.50;99.90;;;;;;5073444;28;20478;-74
2021/01/12 04:50:22;;;;;;;22.50;11.00;;;-0.40;99.90;;;;;;5057846;28;20463;-79
2021/01/12 04:52:52;;;;;;;14.60;8.43;;;-0.40;99.90;;;;;;5077542;28;20469;-77
2021/01/12 04:55:22;;;;;;;14.10;9.10;;;-0.40;99.90;;;;;;5077303;28;20456;-74
2021/01/12 04:57:50;;;;;;;20.73;11.50;;;-0.50;99.90;;;;;;5077078;28;20429;-75
2021/01/12 05:00:23;;;;;;;18.80;10.40;;;-0.50;99.90;;;;;;5076204;28;20497;-75
2021/01/12 05:02:59;;;;;;;16.40;8.90;;;-0.50;99.90;;;;;;5074951;28;20465;-73
2021/01/12 05:05:29;;;;;;;14.27;9.70;;;-0.50;99.90;;;;;;5074119;28;20429;-82
2021/01/12 05:08:01;;;;;;;18.70;10.13;;;-0.50;99.90;;;;;;5075515;28;20463;-74
2021/01/12 05:10:35;;;;;;;17.30;9.53;;;-0.40;99.90;;;;;;5075650;28;20750;-75
2021/01/12 05:13:31;;;;;;;22.83;11.10;;;-0.50;99.90;;;;;;5076696;28;20445;-77
2021/01/12 05:16:05;;;;;;;19.47;10.23;;;-0.50;99.90;;;;;;5076357;28;20590;-73
2021/01/12 05:18:38;;;;;;;15.20;9.07;;;-0.50;99.90;;;;;;5073493;28;20465;-74
2021/01/12 05:21:11;;;;;;;18.40;10.87;;;-0.50;99.90;;;;;;5073142;28;20425;-75
2021/01/12 05:23:59;;;;;;;16.33;9.60;;;-0.50;99.90;;;;;;5073603;28;20440;-78
2021/01/12 05:26:33;;;;;;;14.60;9.67;;;-0.50;99.90;;;;;;5072983;28;20540;-75
2021/01/12 05:29:01;;;;;;;17.53;9.57;;;-0.40;99.90;;;;;;5075386;28;20433;-73
2021/01/12 05:31:30;;;;;;;19.20;9.87;;;-0.30;99.90;;;;;;5069833;28;20470;-73
2021/01/12 05:34:03;;;;;;;19.03;11.17;;;-0.40;99.90;;;;;;5056093;28;20430;-74
2021/01/12 05:36:31;;;;;;;16.50;9.60;;;-0.30;99.90;;;;;;5054649;28;20465;-75
2021/01/12 05:39:03;;;;;;;18.83;10.20;;;-0.30;99.90;;;;;;5053992;28;20473;-74
2021/01/12 05:41:36;;;;;;;14.23;8.57;;;-0.20;99.90;;;;;;5052136;28;20541;-73
2021/01/12 05:44:04;;;;;;;17.40;10.50;;;-0.20;99.90;;;;;;5051186;28;20431;-73
2021/01/12 05:46:33;;;;;;;15.03;9.53;;;-0.30;99.90;;;;;;5061880;28;20469;-73
2021/01/12 05:49:08;;;;;;;15.90;10.40;;;-0.20;99.90;;;;;;5070991;28;20448;-73
2021/01/12 05:51:44;;;;;;;18.40;10.50;;;-0.30;99.90;;;;;;5071236;28;20440;-74
2021/01/12 05:54:30;;;;;;;18.57;10.43;;;-0.20;99.90;;;;;;5076696;28;20549;-74
2021/01/12 05:57:00;;;;;;;20.30;11.23;;;-0.20;99.90;;;;;;5076016;28;20713;-73
2021/01/12 05:59:29;;;;;;;14.50;10.20;;;-0.20;99.90;;;;;;5073264;28;20455;-74
2021/01/12 06:01:58;;;;;;;19.63;13.40;;;-0.30;99.90;;;;;;5049157;28;20576;-74
2021/01/12 06:04:26;;;;;;;22.10;12.50;;;-0.40;99.90;;;;;;5064242;28;20531;-74
2021/01/12 06:06:55;;;;;;;15.17;10.80;;;-0.70;99.90;;;;;;5065999;28;20831;-73
2021/01/12 06:09:23;;;;;;;22.63;11.53;;;-0.60;99.90;;;;;;5065251;28;20456;-72
2021/01/12 06:11:53;;;;;;;24.10;11.50;;;-0.50;99.90;;;;;;5064515;28;20445;-73
2021/01/12 06:14:23;;;;;;;18.10;11.90;;;-0.40;99.90;;;;;;5064807;28;20546;-73
2021/01/12 06:16:51;;;;;;;20.80;12.67;;;-0.40;99.90;;;;;;5060565;28;20841;-72
2021/01/12 06:19:20;;;;;;;20.33;12.77;;;-0.40;99.90;;;;;;5045475;28;20525;-72
2021/01/12 06:22:15;;;;;;;18.30;11.70;;;-0.40;99.90;;;;;;5047337;28;20569;-72
2021/01/12 06:25:03;;;;;;;21.80;11.27;;;-0.40;99.90;;;;;;5045263;28;20623;-75
2021/01/12 06:27:33;;;;;;;22.47;11.63;;;-0.40;99.90;;;;;;5045045;28;20991;-71
2021/01/12 06:30:08;;;;;;;18.77;11.60;;;-0.30;99.90;;;;;;5048188;28;20454;-74
2021/01/12 06:32:37;;;;;;;18.80;11.40;;;-0.10;99.90;;;;;;5045843;28;20482;-71
2021/01/12 06:35:09;;;;;;;15.40;9.20;;;-0.10;99.90;;;;;;5045552;28;20470;-74
2021/01/12 06:37:38;;;;;;;17.10;10.30;;;-0.10;99.90;;;;;;5044591;28;20458;-75
2021/01/12 06:40:08;;;;;;;21.43;11.20;;;0.00;99.90;;;;;;5044652;28;20496;-75
2021/01/12 06:42:37;;;;;;;14.30;8.97;;;0.00;99.90;;;;;;5028481;28;20519;-77
2021/01/12 06:45:08;;;;;;;13.90;9.80;;;0.00;99.90;;;;;;5045212;28;20802;-75
2021/01/12 06:47:37;;;;;;;14.70;10.80;;;0.00;99.90;;;;;;5044532;28;20474;-74
2021/01/12 06:50:10;;;;;;;15.80;9.70;;;-0.10;99.90;;;;;;5045387;28;20466;-74
2021/01/12 06:52:41;;;;;;;18.70;10.33;;;0.00;99.90;;;;;;5043533;28;20543;-75
2021/01/12 06:55:10;;;;;;;21.97;12.60;;;0.10;99.90;;;;;;5044209;28;20469;-74
2021/01/12 06:58:08;;;;;;;19.80;10.90;;;0.10;99.90;;;;;;5060398;28;20474;-75
2021/01/12 07:00:37;;;;;;;19.73;10.27;;;0.00;99.90;;;;;;5051504;28;20488;-79
2021/01/12 07:03:09;;;;;;;22.10;10.53;;;0.00;99.90;;;;;;5062419;28;20470;-75
2021/01/12 07:05:45;;;;;;;18.40;10.50;;;0.00;99.90;;;;;;5065314;28;20884;-74
2021/01/12 07:08:13;;;;;;;18.97;10.13;;;0.10;99.90;;;;;;5066144;28;21571;-74
2021/01/12 07:10:46;;;;;;;18.47;10.83;;;0.20;99.90;;;;;;5047054;28;21046;-75
2021/01/12 07:13:13;;;;;;;17.80;10.80;;;0.00;99.90;;;;;;5063839;28;20849;-73
2021/01/12 07:15:44;;;;;;;16.30;10.33;;;0.10;99.90;;;;;;5065598;28;20465;-73
2021/01/12 07:18:20;;;;;;;19.40;10.20;;;0.00;99.90;;;;;;5064013;28;20477;-76
2021/01/12 07:20:49;;;;;;;21.90;11.33;;;0.00;99.90;;;;;;5063935;28;20520;-74
2021/01/12 07:23:33;;;;;;;15.97;9.90;;;0.00;99.90;;;;;;5065310;28;20453;-74
2021/01/12 07:26:05;;;;;;;20.30;12.37;;;0.00;99.90;;;;;;5064885;28;20450;-75
2021/01/12 07:28:34;;;;;;;16.37;10.00;;;0.00;99.90;;;;;;5047576;28;21091;-74
2021/01/12 07:31:06;;;;;;;18.10;10.03;;;0.10;99.90;;;;;;5062951;28;20470;-74
2021/01/12 07:33:36;;;;;;;20.77;12.00;;;0.10;99.90;;;;;;5047988;28;20560;-73
2021/01/12 07:36:04;;;;;;;15.20;9.83;;;0.10;99.90;;;;;;5048615;28;20473;-73
2021/01/12 07:38:32;;;;;;;22.23;13.17;;;0.00;99.90;;;;;;5048660;28;20560;-73
2021/01/12 07:41:01;;;;;;;17.37;11.17;;;0.10;99.90;;;;;;5048241;28;20477;-73
2021/01/12 07:43:31;;;;;;;29.90;13.50;;;0.00;99.90;;;;;;5066935;28;20537;-73
2021/01/12 07:46:03;;;;;;;25.20;13.50;;;0.00;99.90;;;;;;5044054;28;20470;-73
2021/01/12 07:48:31;;;;;;;27.13;14.30;;;-0.10;99.90;;;;;;5045984;28;21020;-74
2021/01/12 07:51:02;;;;;;;26.30;14.03;;;-0.20;99.90;;;;;;5046506;28;20572;-74
2021/01/12 07:53:31;;;;;;;19.60;13.00;;;-0.20;99.90;;;;;;5043762;28;21214;-73
2021/01/12 07:56:00;;;;;;;29.33;13.87;;;-0.30;99.90;;;;;;5045820;28;20519;-74
2021/01/12 07:58:29;;;;;;;23.63;14.00;;;-0.30;99.90;;;;;;5045005;28;20450;-74
2021/01/12 08:00:58;;;;;;;29.17;14.07;;;-0.30;99.90;;;;;;5047470;28;20500;-73
2021/01/12 08:03:41;;;;;;;27.67;14.13;;;-0.30;99.90;;;;;;5054272;22;20609;-67
2021/01/12 08:06:09;;;;;;;22.40;14.07;;;-0.40;99.90;;;;;;5042747;28;20514;-67
2021/01/12 08:08:37;;;;;;;27.17;15.13;;;-0.30;99.90;;;;;;5035917;28;20573;-67
2021/01/12 08:11:06;;;;;;;25.83;14.20;;;-0.30;99.90;;;;;;5044378;28;20466;-66
2021/01/12 08:13:33;;;;;;;24.03;11.77;;;-0.40;99.90;;;;;;5042249;28;20470;-68
2021/01/12 08:16:09;;;;;;;29.80;16.13;;;-0.30;99.90;;;;;;5026408;28;20467;-67
2021/01/12 08:18:38;;;;;;;28.60;15.17;;;-0.30;99.90;;;;;;5031011;28;20546;-67
2021/01/12 08:21:05;;;;;;;27.13;14.13;;;-0.20;99.90;;;;;;5073366;28;20490;-66
2021/01/12 08:23:33;;;;;;;26.07;14.00;;;-0.20;99.90;;;;;;5028471;28;20490;-67
2021/01/12 08:26:09;;;;;;;22.73;13.70;;;-0.30;99.90;;;;;;5028093;28;20481;-66
2021/01/12 08:28:37;;;;;;;20.83;12.70;;;-0.20;99.90;;;;;;5026867;28;20451;-67
2021/01/12 08:31:04;;;;;;;24.40;13.80;;;-0.20;99.90;;;;;;5026362;28;20666;-67
2021/01/12 08:33:38;;;;;;;28.47;14.07;;;-0.20;99.90;;;;;;5027482;28;20478;-68
2021/01/12 08:36:09;;;;;;;25.67;14.00;;;0.00;99.90;;;;;;5025010;28;20498;-67
2021/01/12 08:38:42;;;;;;;22.50;13.57;;;-0.10;99.90;;;;;;5026286;28;20475;-68
2021/01/12 08:41:10;;;;;;;25.90;14.77;;;-0.20;99.90;;;;;;5026268;28;20482;-67
2021/01/12 08:43:40;;;;;;;21.93;11.73;;;0.00;99.90;;;;;;5026686;28;20463;-67
2021/01/12 08:46:07;;;;;;;20.07;12.03;;;0.00;99.90;;;;;;5025717;28;20938;-66
2021/01/12 08:48:47;;;;;;;18.60;12.93;;;0.00;99.90;;;;;;5026721;28;20467;-66
2021/01/12 08:51:20;;;;;;;23.50;12.10;;;0.00;99.90;;;;;;5026177;28;20463;-66
2021/01/12 08:53:49;;;;;;;22.77;12.10;;;0.00;99.90;;;;;;5025838;28;20455;-66
2021/01/12 08:56:18;;;;;;;26.73;13.20;;;0.00;99.90;;;;;;5024882;28;21633;-66
2021/01/12 08:58:45;;;;;;;20.73;12.27;;;0.20;99.90;;;;;;5026308;28;20966;-67
2021/01/12 09:01:27;;;;;;;22.17;13.13;;;0.30;99.90;;;;;;5024491;28;20874;-67
2021/01/12 09:04:05;;;;;;;22.10;11.87;;;0.20;99.90;;;;;;5024875;28;21059;-67
2021/01/12 09:06:35;;;;;;;29.27;16.67;;;0.20;99.90;;;;;;5024597;28;20441;-66
2021/01/12 09:09:11;;;;;;;19.77;13.37;;;0.10;99.90;;;;;;5024673;28;20786;-66
2021/01/12 09:11:44;;;;;;;22.30;12.37;;;0.20;99.90;;;;;;5008087;28;20455;-66
2021/01/12 09:14:12;;;;;;;24.30;12.97;;;0.20;99.90;;;;;;5025414;28;20490;-67
2021/01/12 09:16:42;;;;;;;21.50;11.97;;;0.20;99.90;;;;;;5022798;28;20610;-67
2021/01/12 09:19:14;;;;;;;23.83;13.37;;;0.20;99.90;;;;;;5025822;28;20548;-66
2021/01/12 09:21:42;;;;;;;21.13;11.80;;;0.20;99.90;;;;;;5029070;28;20491;-66
2021/01/12 09:24:16;;;;;;;21.67;11.57;;;0.20;99.90;;;;;;5025576;28;20458;-66
2021/01/12 09:26:44;;;;;;;22.10;12.00;;;0.20;99.90;;;;;;5026744;28;20818;-66
2021/01/12 09:29:12;;;;;;;21.30;11.70;;;0.30;99.90;;;;;;5029170;28;20469;-66
2021/01/12 09:31:48;;;;;;;24.70;13.40;;;0.30;99.90;;;;;;5029027;28;21003;-66
2021/01/12 09:34:20;;;;;;;28.67;12.97;;;0.30;99.90;;;;;;5028257;28;20532;-67
2021/01/12 09:36:50;;;;;;;27.03;13.07;;;0.30;99.90;;;;;;5064756;28;21962;-66
2021/01/12 09:39:17;;;;;;;21.63;12.70;;;0.20;99.90;;;;;;5040775;28;20451;-66
2021/01/12 09:41:52;;;;;;;22.20;11.77;;;0.30;99.90;;;;;;5044825;28;20958;-66
2021/01/12 09:44:20;;;;;;;23.07;13.67;;;0.40;99.90;;;;;;5043287;28;20463;-66
2021/01/12 09:47:12;;;;;;;24.10;13.00;;;0.40;99.90;;;;;;5047199;28;20474;-66
2021/01/12 09:49:40;;;;;;;26.20;13.40;;;0.30;99.90;;;;;;5044626;28;20465;-66
2021/01/12 09:52:08;;;;;;;21.80;13.23;;;0.40;99.90;;;;;;5028815;28;20458;-67
2021/01/12 09:54:40;;;;;;;23.13;13.10;;;0.40;99.90;;;;;;5029127;28;20785;-66
2021/01/12 09:57:10;;;;;;;22.07;13.87;;;0.40;99.90;;;;;;5027257;28;20459;-66
2021/01/12 09:59:38;;;;;;;23.90;12.33;;;0.50;99.90;;;;;;5044212;28;21013;-66
2021/01/12 10:02:10;;;;;;;20.90;14.00;;;0.60;99.90;;;;;;5028271;28;21565;-66
2021/01/12 10:04:37;;;;;;;18.83;12.40;;;0.50;99.90;;;;;;5029254;28;20487;-66
2021/01/12 10:07:05;;;;;;;29.10;12.10;;;0.60;99.90;;;;;;5028612;28;20514;-66
2021/01/12 10:09:35;;;;;;;21.03;12.03;;;0.70;99.90;;;;;;5028512;28;20463;-67
2021/01/12 10:12:04;;;;;;;23.40;13.27;;;0.70;99.90;;;;;;5029744;28;20462;-65
2021/01/12 10:14:32;;;;;;;20.03;11.90;;;0.60;99.90;;;;;;5028753;28;20553;-66
2021/01/12 10:16:59;;;;;;;19.23;10.93;;;0.70;99.90;;;;;;5019448;28;20471;-67
2021/01/12 10:19:28;;;;;;;16.07;11.13;;;0.70;99.90;;;;;;5028525;28;20496;-66
2021/01/12 10:21:57;;;;;;;17.93;12.53;;;0.70;99.90;;;;;;5028706;28;20558;-66
2021/01/12 10:24:24;;;;;;;20.60;11.87;;;0.70;99.90;;;;;;5027909;28;20455;-68
2021/01/12 10:26:53;;;;;;;21.70;12.50;;;0.70;99.90;;;;;;5028452;28;20451;-66
2021/01/12 10:29:22;;;;;;;25.30;11.90;;;0.80;99.90;;;;;;5028919;28;20577;-66
2021/01/12 10:31:50;;;;;;;19.63;10.27;;;0.90;99.90;;;;;;5026138;28;20487;-66
2021/01/12 10:34:19;;;;;;;21.17;10.60;;;1.00;99.90;;;;;;5028448;28;20463;-65
2021/01/12 10:36:50;;;;;;;14.90;9.93;;;1.00;99.90;;;;;;5010013;28;20475;-66
2021/01/12 10:39:17;;;;;;;21.70;12.20;;;1.00;99.90;;;;;;5027145;28;20455;-66
2021/01/12 10:41:45;;;;;;;19.73;10.57;;;1.10;99.90;;;;;;5027898;28;20461;-67
2021/01/12 10:44:13;;;;;;;15.60;9.07;;;1.10;99.90;;;;;;5028265;28;20451;-68
2021/01/12 10:49:39;;;;;;;19.03;11.10;;;1.10;99.90;;;;;;5026438;28;20470;-67
2021/01/12 10:52:07;;;;;;;15.17;11.10;;;1.00;99.90;;;;;;5029173;28;20805;-67
2021/01/12 10:54:35;;;;;;;18.67;10.60;;;1.10;99.90;;;;;;5045089;28;20491;-66
2021/01/12 10:57:03;;;;;;;15.43;9.33;;;1.10;99.90;;;;;;5030770;28;20958;-66
2021/01/12 10:59:31;;;;;;;18.97;11.60;;;1.20;99.90;;;;;;5028523;28;21028;-66
2021/01/12 11:04:52;;;;;;;14.77;9.33;;;1.20;99.90;;;;;;5028056;28;20845;-65
2021/01/12 11:07:20;;;;;;;14.93;8.47;;;1.30;99.90;;;;;;5027962;28;20439;-66
2021/01/12 11:09:49;;;;;;;15.67;8.77;;;1.30;99.90;;;;;;5026139;28;20471;-67
2021/01/12 11:12:18;;;;;;;15.27;8.80;;;1.30;99.90;;;;;;5027855;28;20458;-66
2021/01/12 11:14:47;;;;;;;14.30;9.33;;;1.30;99.90;;;;;;5030810;28;20772;-66
2021/01/12 11:17:14;;;;;;;14.37;9.23;;;1.30;99.90;;;;;;5034127;28;20831;-66
2021/01/12 11:19:42;;;;;;;14.30;9.00;;;1.40;99.90;;;;;;5035233;28;20499;-67
2021/01/12 11:22:10;;;;;;;14.53;8.40;;;1.40;99.90;;;;;;5037310;28;20924;-66
2021/01/12 11:24:37;;;;;;;11.50;8.27;;;1.40;99.90;;;;;;5033404;28;20451;-66
2021/01/12 11:27:07;;;;;;;12.70;8.10;;;1.50;99.90;;;;;;5012477;28;20971;-66
2021/01/12 11:29:35;;;;;;;12.20;7.60;;;1.50;99.90;;;;;;5035159;28;20517;-67
2021/01/12 11:32:04;;;;;;;14.43;8.40;;;1.50;99.90;;;;;;5036721;28;20514;-65
2021/01/12 11:34:32;;;;;;;9.37;6.73;;;1.50;99.90;;;;;;5039012;28;20545;-65
2021/01/12 11:37:00;;;;;;;9.73;7.27;;;1.60;99.90;;;;;;5040448;28;20459;-65
2021/01/12 11:39:27;;;;;;;13.33;7.70;;;1.60;99.90;;;;;;5033815;28;20467;-67
2021/01/12 11:41:56;;;;;;;12.57;7.87;;;1.60;99.90;;;;;;5031392;28;20462;-66
2021/01/12 11:44:25;;;;;;;9.03;6.07;;;1.60;99.90;;;;;;5029830;28;20459;-65
2021/01/12 11:46:53;;;;;;;9.00;5.80;;;1.70;99.90;;;;;;5028438;28;20471;-65
2021/01/12 11:49:22;;;;;;;7.77;5.27;;;1.70;99.90;;;;;;5009139;28;20482;-66
2021/01/12 11:51:49;;;;;;;6.40;5.10;;;1.80;99.90;;;;;;5026032;28;20981;-66
2021/01/12 11:54:18;;;;;;;7.00;4.13;;;1.90;99.90;;;;;;5027118;28;20455;-65
2021/01/12 11:56:50;;;;;;;8.07;4.23;;;1.90;99.90;;;;;;5025344;28;20461;-65
2021/01/12 11:59:19;;;;;;;7.37;3.87;;;1.80;99.90;;;;;;5025135;28;20458;-66
2021/01/12 12:01:49;;;;;;;5.40;4.70;;;1.80;99.90;;;;;;5023502;28;20447;-66
2021/01/12 12:04:17;;;;;;;5.03;3.40;;;1.70;99.90;;;;;;5026917;28;20753;-65
2021/01/12 12:06:48;;;;;;;7.27;3.97;;;1.80;99.90;;;;;;5026612;28;20459;-66
2021/01/12 12:09:16;;;;;;;5.67;3.30;;;1.90;99.90;;;;;;5024627;28;20558;-66
2021/01/12 12:11:44;;;;;;;5.40;3.13;;;1.90;99.90;;;;;;5026797;28;20459;-65
2021/01/12 12:14:12;;;;;;;2.90;2.37;;;1.90;99.90;;;;;;5026943;28;20782;-65
2021/01/12 12:16:47;;;;;;;3.07;2.77;;;2.00;99.90;;;;;;5057184;28;20840;-66
2021/01/12 12:19:16;;;;;;;4.93;2.63;;;1.90;99.90;;;;;;5008659;28;21020;-65
2021/01/12 12:21:52;;;;;;;3.57;2.90;;;1.90;99.90;;;;;;5026924;28;20486;-66
2021/01/12 12:24:22;;;;;;;4.20;2.30;;;1.90;99.90;;;;;;5025112;28;20478;-65
2021/01/12 12:26:50;;;;;;;1.93;1.70;;;1.90;99.90;;;;;;5027447;28;20463;-65
2021/01/12 12:29:19;;;;;;;2.40;1.90;;;2.00;99.90;;;;;;5026890;28;20455;-65
2021/01/12 12:31:53;;;;;;;2.03;1.87;;;2.00;99.90;;;;;;5007922;28;20769;-66
2021/01/12 12:34:23;;;;;;;3.77;2.70;;;2.10;99.90;;;;;;5027315;28;20487;-65
2021/01/12 12:36:51;;;;;;;2.90;2.10;;;2.00;99.90;;;;;;5041539;28;20985;-66
2021/01/12 12:39:19;;;;;;;2.27;2.07;;;2.00;99.90;;;;;;5026695;28;20455;-65
2021/01/12 12:41:46;;;;;;;2.50;1.57;;;2.10;99.90;;;;;;5041619;28;20507;-67
2021/01/12 12:44:13;;;;;;;2.40;1.63;;;2.10;99.90;;;;;;5025420;28;20475;-66
2021/01/12 12:47:06;;;;;;;2.30;1.70;;;2.20;99.90;;;;;;5015696;28;20502;-66
2021/01/12 12:49:34;;;;;;;1.90;1.63;;;2.20;99.90;;;;;;5005083;28;20460;-66
2021/01/12 12:52:05;;;;;;;2.13;1.67;;;2.20;99.90;;;;;;4990940;28;20529;-66
2021/01/12 12:54:32;;;;;;;2.13;1.93;;;2.20;99.90;;;;;;5006382;28;20496;-66
2021/01/12 12:56:59;;;;;;;2.73;1.80;;;2.20;99.90;;;;;;5006108;28;20475;-66
2021/01/12 12:59:28;;;;;;;4.53;2.10;;;2.20;99.90;;;;;;5004724;28;20476;-66